Time;durP1;ratioP1;P1;durP2;ratioP2;P2;SDS_P1;SDS_P2;PMS_P1;PMS_P2;Temp;Humidity;BMP_temperature;BMP_pressure;BME280_temperature;BME280_humidity;BME280_pressure;Samples;Min_cycle;Max_cycle;Signal;HPM_P1;HPM_P2
2021/07/03 00:00:11;;;;;;;20.38;2.97;;;37.40;36.90;;;;;;5082572;28;20545;-66
2021/07/03 00:02:38;;;;;;;13.40;3.03;;;37.40;36.50;;;;;;5082837;28;20073;-66
2021/07/03 00:05:06;;;;;;;12.82;2.95;;;37.40;38.90;;;;;;5084227;28;20092;-66
2021/07/03 00:07:32;;;;;;;17.85;3.33;;;37.50;40.40;;;;;;5078394;28;20083;-67
2021/07/03 00:09:59;;;;;;;18.92;3.50;;;37.50;41.50;;;;;;5083241;28;20180;-66
2021/07/03 00:12:25;;;;;;;25.92;3.97;;;37.50;43.30;;;;;;5081046;28;20168;-66
2021/07/03 00:14:52;;;;;;;27.10;3.97;;;37.30;44.30;;;;;;5083434;28;20131;-68
2021/07/03 00:17:18;;;;;;;27.48;3.78;;;37.30;45.50;;;;;;5083210;28;20845;-65
2021/07/03 00:19:45;;;;;;;99.65;8.93;;;37.30;46.10;;;;;;5089588;28;20441;-63
2021/07/03 00:22:11;;;;;;;37.97;4.38;;;37.30;45.50;;;;;;5087176;28;20475;-64
2021/07/03 00:24:38;;;;;;;29.50;4.20;;;37.30;45.30;;;;;;5090749;28;20155;-66
2021/07/03 00:27:05;;;;;;;45.33;5.25;;;37.20;44.00;;;;;;5091385;28;20081;-66
2021/07/03 00:29:31;;;;;;;35.45;4.72;;;37.20;44.70;;;;;;5085035;28;20101;-66
2021/07/03 00:31:58;;;;;;;43.53;4.93;;;37.20;44.40;;;;;;5086698;28;20445;-66
2021/07/03 00:34:24;;;;;;;22.52;3.85;;;37.30;46.00;;;;;;5088420;28;20109;-66
2021/07/03 00:36:51;;;;;;;27.98;4.45;;;37.30;44.10;;;;;;5085891;28;20076;-66
2021/07/03 00:39:17;;;;;;;29.52;4.00;;;37.20;44.80;;;;;;5086007;28;20073;-65
2021/07/03 00:41:44;;;;;;;20.85;4.07;;;37.20;43.30;;;;;;5083735;28;20108;-67
2021/07/03 00:44:11;;;;;;;40.47;4.13;;;37.10;44.20;;;;;;5084389;28;20649;-66
2021/07/03 00:46:38;;;;;;;9.32;2.97;;;37.10;45.60;;;;;;5082909;28;20087;-68
2021/07/03 00:49:04;;;;;;;19.80;3.25;;;36.90;43.70;;;;;;5090209;28;20081;-66
2021/07/03 00:51:32;;;;;;;17.98;3.38;;;37.00;44.40;;;;;;5083223;28;20101;-65
2021/07/03 00:53:58;;;;;;;18.52;3.33;;;36.90;45.20;;;;;;5090234;28;20069;-65
2021/07/03 00:56:27;;;;;;;18.10;3.20;;;36.80;44.50;;;;;;5088436;28;20076;-66
2021/07/03 00:58:54;;;;;;;17.42;3.13;;;36.60;48.20;;;;;;5087827;28;20076;-66
2021/07/03 01:01:20;;;;;;;23.23;3.85;;;36.50;49.30;;;;;;5088311;28;20073;-65
2021/07/03 01:03:47;;;;;;;20.13;3.55;;;36.40;49.90;;;;;;5083033;28;20081;-66
2021/07/03 01:06:13;;;;;;;26.02;3.70;;;36.30;50.00;;;;;;5090247;28;20076;-65
2021/07/03 01:08:40;;;;;;;12.93;3.00;;;36.20;51.40;;;;;;5090095;28;20544;-67
2021/07/03 01:11:06;;;;;;;12.25;3.72;;;36.10;51.80;;;;;;5084826;28;20112;-66
2021/07/03 01:13:33;;;;;;;19.45;3.50;;;36.00;52.90;;;;;;5087315;28;20073;-66
2021/07/03 01:15:59;;;;;;;14.68;3.17;;;35.80;53.80;;;;;;5086875;28;20076;-66
2021/07/03 01:18:26;;;;;;;18.67;4.15;;;35.80;54.30;;;;;;5084132;28;20073;-67
2021/07/03 01:20:54;;;;;;;26.73;3.65;;;35.70;54.60;;;;;;5085077;28;20529;-65
2021/07/03 01:23:22;;;;;;;17.33;3.50;;;35.70;54.60;;;;;;5082741;28;20077;-67
2021/07/03 01:25:56;;;;;;;15.88;3.53;;;35.70;54.90;;;;;;5082784;28;20073;-68
2021/07/03 01:28:22;;;;;;;18.05;3.58;;;35.60;55.00;;;;;;5083635;28;20077;-66
2021/07/03 01:30:50;;;;;;;17.90;2.83;;;35.50;55.00;;;;;;5085657;28;20092;-66
2021/07/03 01:33:16;;;;;;;10.35;2.97;;;35.40;54.50;;;;;;5081682;28;20073;-67
2021/07/03 01:35:43;;;;;;;17.92;3.10;;;35.40;54.10;;;;;;5082269;28;20102;-66
2021/07/03 01:38:09;;;;;;;13.07;2.42;;;35.30;54.60;;;;;;5088422;28;20445;-67
2021/07/03 01:40:36;;;;;;;18.83;2.70;;;35.20;54.50;;;;;;5087522;28;20085;-65
2021/07/03 01:43:02;;;;;;;14.73;2.55;;;35.20;54.70;;;;;;5084847;28;20081;-65
2021/07/03 01:45:29;;;;;;;13.15;3.08;;;35.20;54.60;;;;;;5085095;28;20072;-65
2021/07/03 01:47:56;;;;;;;19.98;3.70;;;35.10;54.60;;;;;;5084846;28;20077;-65
2021/07/03 01:50:22;;;;;;;13.13;3.40;;;35.00;54.20;;;;;;5086178;28;20102;-66
2021/07/03 01:52:51;;;;;;;13.63;2.95;;;35.00;54.50;;;;;;5088286;28;20118;-65
2021/07/03 01:55:17;;;;;;;7.40;2.65;;;35.00;54.00;;;;;;5084268;28;20127;-65
2021/07/03 01:57:44;;;;;;;15.15;2.72;;;35.00;53.90;;;;;;5086942;28;20073;-66
2021/07/03 02:00:12;;;;;;;13.50;2.70;;;34.90;54.00;;;;;;5069948;28;20073;-66
2021/07/03 02:02:38;;;;;;;11.95;2.55;;;35.00;53.70;;;;;;5082764;28;20541;-67
2021/07/03 02:05:05;;;;;;;19.98;2.95;;;35.00;53.90;;;;;;5087364;28;20079;-66
2021/07/03 02:07:32;;;;;;;12.70;2.90;;;34.90;53.60;;;;;;5085795;28;20416;-64
2021/07/03 02:10:00;;;;;;;9.98;2.70;;;34.90;53.20;;;;;;5087820;28;20562;-66
2021/07/03 02:12:26;;;;;;;11.57;2.45;;;34.90;52.40;;;;;;5087189;28;20081;-67
2021/07/03 02:14:53;;;;;;;16.98;2.75;;;34.90;52.40;;;;;;5082963;28;20069;-66
2021/07/03 02:17:20;;;;;;;10.20;2.58;;;34.90;51.90;;;;;;5082579;28;20134;-65
2021/07/03 02:19:46;;;;;;;12.80;2.63;;;34.80;52.30;;;;;;5084522;28;20081;-65
2021/07/03 02:22:13;;;;;;;13.10;2.53;;;34.80;52.20;;;;;;5085021;28;20130;-65
2021/07/03 02:24:39;;;;;;;13.63;2.72;;;34.80;52.40;;;;;;5084972;28;20534;-65
2021/07/03 02:27:06;;;;;;;12.25;3.35;;;34.70;52.30;;;;;;5080308;28;20080;-66
2021/07/03 02:29:32;;;;;;;12.45;3.13;;;34.70;52.50;;;;;;5083824;28;20514;-66
2021/07/03 02:31:59;;;;;;;17.13;3.50;;;34.70;52.30;;;;;;5081782;28;20084;-65
2021/07/03 02:34:26;;;;;;;10.13;3.53;;;34.60;52.20;;;;;;5084683;28;20065;-66
2021/07/03 02:36:52;;;;;;;15.35;4.20;;;34.60;52.30;;;;;;5084976;28;20499;-66
2021/07/03 02:39:19;;;;;;;14.20;3.63;;;34.70;52.50;;;;;;5083409;28;20589;-67
2021/07/03 02:41:45;;;;;;;10.98;2.83;;;34.70;52.50;;;;;;5083985;28;20604;-64
2021/07/03 02:44:12;;;;;;;27.10;3.63;;;34.70;52.50;;;;;;5086205;28;20586;-65
2021/07/03 02:46:39;;;;;;;28.48;3.70;;;34.70;52.40;;;;;;5081829;28;20084;-67
2021/07/03 02:49:05;;;;;;;27.58;3.70;;;34.70;52.70;;;;;;5082635;28;20072;-66
2021/07/03 02:51:32;;;;;;;12.88;3.00;;;34.70;53.00;;;;;;5086995;28;20093;-65
2021/07/03 02:53:58;;;;;;;16.40;3.72;;;34.60;53.30;;;;;;5078529;28;20557;-65
2021/07/03 02:56:25;;;;;;;16.73;4.25;;;34.60;53.40;;;;;;5082300;28;20112;-66
2021/07/03 02:58:51;;;;;;;21.60;4.38;;;34.60;54.10;;;;;;5085059;28;20104;-66
2021/07/03 03:01:18;;;;;;;19.85;4.75;;;34.60;54.10;;;;;;5084121;28;20073;-66
2021/07/03 03:03:45;;;;;;;17.38;4.93;;;34.60;54.20;;;;;;5081058;28;20398;-66
2021/07/03 03:06:14;;;;;;;19.05;5.10;;;34.60;54.60;;;;;;5085424;28;20083;-65
2021/07/03 03:08:41;;;;;;;24.23;5.97;;;34.60;54.50;;;;;;5080957;28;20077;-65
2021/07/03 03:11:08;;;;;;;25.10;5.97;;;34.50;54.60;;;;;;5085038;28;20483;-66
2021/07/03 03:13:34;;;;;;;27.40;6.93;;;34.50;54.40;;;;;;5083959;28;20072;-66
2021/07/03 03:16:01;;;;;;;32.97;7.68;;;34.50;54.80;;;;;;5081270;28;20080;-65
2021/07/03 03:18:27;;;;;;;31.05;7.07;;;34.40;54.50;;;;;;5084088;28;20099;-64
2021/07/03 03:20:54;;;;;;;25.73;7.30;;;34.40;54.70;;;;;;5083693;28;20167;-67
2021/07/03 03:23:20;;;;;;;22.80;6.80;;;34.40;54.60;;;;;;5081914;28;20084;-66
2021/07/03 03:25:47;;;;;;;22.77;5.95;;;34.40;54.20;;;;;;5086635;28;20069;-66
2021/07/03 03:28:14;;;;;;;15.60;5.07;;;34.40;54.20;;;;;;5086045;28;20526;-66
2021/07/03 03:30:40;;;;;;;32.08;6.78;;;34.30;54.10;;;;;;5082775;28;20149;-66
2021/07/03 03:33:07;;;;;;;32.25;7.00;;;34.30;54.40;;;;;;5083763;28;20125;-65
2021/07/03 03:35:33;;;;;;;16.48;6.57;;;34.20;54.50;;;;;;5080470;28;20513;-66
2021/07/03 03:38:00;;;;;;;19.92;7.00;;;34.10;54.40;;;;;;5081389;28;20080;-66
2021/07/03 03:40:27;;;;;;;19.85;7.55;;;34.10;54.20;;;;;;5085998;28;20073;-66
2021/07/03 03:42:55;;;;;;;25.40;7.53;;;34.00;54.00;;;;;;5088421;28;20077;-65
2021/07/03 03:45:22;;;;;;;25.60;8.23;;;34.00;54.10;;;;;;5086360;28;20077;-66
2021/07/03 03:47:49;;;;;;;27.33;8.40;;;34.00;54.00;;;;;;5084772;28;20130;-66
2021/07/03 03:50:15;;;;;;;21.17;7.70;;;33.90;54.30;;;;;;5084345;28;20107;-65
2021/07/03 03:52:42;;;;;;;26.48;7.97;;;33.90;54.10;;;;;;5084267;28;20081;-67
2021/07/03 03:55:09;;;;;;;27.00;8.07;;;33.70;53.70;;;;;;5085021;28;20591;-65
2021/07/03 03:57:35;;;;;;;32.10;9.52;;;33.70;53.70;;;;;;5086173;28;20126;-65
2021/07/03 04:00:03;;;;;;;20.92;8.82;;;33.60;53.50;;;;;;5085422;28;20130;-65
2021/07/03 04:02:29;;;;;;;25.00;8.85;;;33.60;53.50;;;;;;5082660;28;20069;-66
2021/07/03 04:04:56;;;;;;;24.90;10.13;;;33.60;53.50;;;;;;5084630;28;20076;-65
2021/07/03 04:07:23;;;;;;;27.38;9.57;;;33.50;53.40;;;;;;5083599;28;20501;-65
2021/07/03 04:09:50;;;;;;;28.75;10.23;;;33.50;53.50;;;;;;5083302;28;20104;-67
2021/07/03 04:12:16;;;;;;;27.10;9.75;;;33.40;53.30;;;;;;5081687;28;20083;-65
2021/07/03 04:14:43;;;;;;;39.00;8.93;;;33.40;53.80;;;;;;5081816;28;20069;-66
2021/07/03 04:17:10;;;;;;;29.00;8.80;;;33.40;54.10;;;;;;5086439;28;20076;-67
2021/07/03 04:19:36;;;;;;;28.45;8.85;;;33.30;53.90;;;;;;5086649;28;20146;-67
2021/07/03 04:22:03;;;;;;;27.40;9.10;;;33.30;54.10;;;;;;5081147;28;20100;-67
2021/07/03 04:24:29;;;;;;;33.92;9.52;;;33.20;54.60;;;;;;5086354;28;20077;-66
2021/07/03 04:26:56;;;;;;;29.23;8.93;;;33.10;54.80;;;;;;5082856;28;20076;-66
2021/07/03 04:29:22;;;;;;;29.70;8.82;;;33.10;54.80;;;;;;5082715;28;20080;-66
2021/07/03 04:31:49;;;;;;;26.67;9.60;;;33.00;55.10;;;;;;5084479;28;20202;-66
2021/07/03 04:34:16;;;;;;;29.20;9.98;;;33.00;55.40;;;;;;5083841;28;20130;-67
2021/07/03 04:36:43;;;;;;;31.25;11.52;;;32.90;55.80;;;;;;5084650;28;20087;-66
2021/07/03 04:39:10;;;;;;;34.75;11.65;;;32.80;55.80;;;;;;5084332;28;20203;-67
2021/07/03 04:41:37;;;;;;;31.60;11.68;;;32.80;55.60;;;;;;5078850;28;20109;-67
2021/07/03 04:44:06;;;;;;;38.83;11.57;;;32.70;56.00;;;;;;5083395;28;20076;-67
2021/07/03 04:46:33;;;;;;;42.53;12.43;;;32.70;55.90;;;;;;5085572;28;20061;-67
2021/07/03 04:49:00;;;;;;;30.27;12.18;;;32.70;55.80;;;;;;5089744;28;20528;-65
2021/07/03 04:51:26;;;;;;;33.58;13.13;;;32.70;55.80;;;;;;5087344;28;20453;-67
2021/07/03 04:53:53;;;;;;;31.17;12.45;;;32.60;55.70;;;;;;5084309;28;20082;-66
2021/07/03 04:56:19;;;;;;;34.47;13.57;;;32.60;55.80;;;;;;5087969;28;20163;-67
2021/07/03 04:58:46;;;;;;;51.08;16.10;;;32.60;55.60;;;;;;5083519;28;20549;-66
2021/07/03 05:01:13;;;;;;;42.63;16.40;;;32.50;55.60;;;;;;5085374;28;20077;-67
2021/07/03 05:03:39;;;;;;;33.22;13.45;;;32.50;55.70;;;;;;5089778;28;20533;-66
2021/07/03 05:06:06;;;;;;;30.38;11.00;;;32.50;55.30;;;;;;5087369;28;20091;-66
2021/07/03 05:08:33;;;;;;;30.23;9.90;;;32.50;54.90;;;;;;5084624;28;20084;-66
2021/07/03 05:10:59;;;;;;;26.08;9.88;;;32.40;54.90;;;;;;5086093;28;20112;-66
2021/07/03 05:13:26;;;;;;;25.90;7.68;;;32.30;54.80;;;;;;5084211;28;20068;-67
2021/07/03 05:15:52;;;;;;;30.33;7.85;;;32.40;54.90;;;;;;5088683;28;20079;-67
2021/07/03 05:18:19;;;;;;;26.20;7.65;;;32.30;54.80;;;;;;5085416;28;20109;-66
2021/07/03 05:20:45;;;;;;;29.42;7.40;;;32.30;54.60;;;;;;5088895;28;20514;-67
2021/07/03 05:23:12;;;;;;;32.60;8.23;;;32.30;54.60;;;;;;5089896;28;20096;-68
2021/07/03 05:25:44;;;;;;;21.80;7.75;;;32.30;54.80;;;;;;5090866;28;20108;-68
2021/07/03 05:28:11;;;;;;;24.20;8.05;;;32.30;54.80;;;;;;5085922;28;20080;-67
2021/07/03 05:30:38;;;;;;;28.85;8.85;;;32.30;55.10;;;;;;5085531;28;20145;-67
2021/07/03 05:33:05;;;;;;;30.42;8.75;;;32.30;55.20;;;;;;5083472;28;20068;-66
2021/07/03 05:35:31;;;;;;;27.63;7.60;;;32.20;55.20;;;;;;5086296;28;20080;-66
2021/07/03 05:37:58;;;;;;;26.88;8.90;;;32.20;55.40;;;;;;5086992;28;20076;-66
2021/07/03 05:40:25;;;;;;;30.92;9.88;;;32.10;55.30;;;;;;5085115;28;20075;-67
2021/07/03 05:42:52;;;;;;;26.20;10.15;;;32.10;55.20;;;;;;5088421;28;20080;-67
2021/07/03 05:45:18;;;;;;;32.42;9.75;;;32.10;55.00;;;;;;5087380;28;20081;-66
2021/07/03 05:47:51;;;;;;;38.70;9.40;;;32.10;54.90;;;;;;5084166;28;20069;-66
2021/07/03 05:50:26;;;;;;;39.10;10.52;;;32.10;54.50;;;;;;5087985;28;20101;-65
2021/07/03 05:52:53;;;;;;;26.85;10.15;;;32.10;54.30;;;;;;5085826;28;20075;-66
2021/07/03 05:55:21;;;;;;;35.67;10.43;;;32.00;54.30;;;;;;5085670;28;20148;-66
2021/07/03 05:57:48;;;;;;;34.33;10.10;;;32.00;54.20;;;;;;5087034;28;20094;-66
2021/07/03 06:00:16;;;;;;;44.88;11.45;;;32.10;86.30;;;;;;5085455;28;20076;-66
2021/07/03 06:02:42;;;;;;;41.40;10.07;;;32.00;61.60;;;;;;5086313;28;20032;-66
2021/07/03 06:05:09;;;;;;;32.03;9.77;;;31.90;53.70;;;;;;5085413;28;20078;-66
2021/07/03 06:07:36;;;;;;;37.33;9.65;;;31.90;53.30;;;;;;5084188;28;20087;-66
2021/07/03 06:10:03;;;;;;;35.55;9.88;;;31.90;90.70;;;;;;5086896;28;20093;-66
2021/07/03 06:12:29;;;;;;;41.20;9.48;;;31.60;91.70;;;;;;5083052;28;20516;-66
2021/07/03 06:14:56;;;;;;;29.77;9.57;;;31.90;59.70;;;;;;5085636;28;20040;-66
2021/07/03 06:17:22;;;;;;;40.33;8.27;;;31.90;51.80;;;;;;5081658;28;20069;-66
2021/07/03 06:19:49;;;;;;;28.75;8.93;;;31.80;51.60;;;;;;5080203;28;20407;-66
2021/07/03 06:22:15;;;;;;;34.90;9.48;;;31.40;85.60;;;;;;5085257;28;20072;-65
2021/07/03 06:24:43;;;;;;;36.70;8.25;;;31.60;68.40;;;;;;5084489;28;20109;-67
2021/07/03 06:27:10;;;;;;;31.50;7.20;;;31.80;52.50;;;;;;5088048;28;20073;-67
2021/07/03 06:29:37;;;;;;;33.78;8.15;;;31.80;53.30;;;;;;5087723;28;20080;-66
2021/07/03 06:32:06;;;;;;;34.55;7.35;;;31.70;54.30;;;;;;5084487;28;20080;-66
2021/07/03 06:34:33;;;;;;;36.08;7.15;;;32.00;58.60;;;;;;5086309;28;20093;-67
2021/07/03 06:36:59;;;;;;;29.30;6.78;;;31.80;96.80;;;;;;5085755;28;20162;-66
2021/07/03 06:39:26;;;;;;;36.85;8.10;;;31.70;56.40;;;;;;5083703;28;20103;-66
2021/07/03 06:41:52;;;;;;;30.00;7.13;;;30.30;89.60;;;;;;5083509;28;20117;-67
2021/07/03 06:44:19;;;;;;;28.27;6.63;;;31.60;57.80;;;;;;5083565;28;20081;-66
2021/07/03 06:46:46;;;;;;;28.83;6.70;;;31.80;71.90;;;;;;5079569;28;20111;-67
2021/07/03 06:49:14;;;;;;;30.48;6.75;;;31.60;58.50;;;;;;5083417;28;20028;-66
2021/07/03 06:51:41;;;;;;;28.65;7.35;;;31.50;58.90;;;;;;5083772;28;20120;-67
2021/07/03 06:54:08;;;;;;;20.35;5.80;;;30.80;92.10;;;;;;5082624;28;20041;-67
2021/07/03 06:56:37;;;;;;;22.90;6.00;;;31.40;59.30;;;;;;5081923;28;20080;-68
2021/07/03 06:59:04;;;;;;;23.60;6.82;;;31.40;59.60;;;;;;5079328;28;20521;-67
2021/07/03 07:01:31;;;;;;;28.20;6.60;;;31.30;60.00;;;;;;5083696;28;20516;-66
2021/07/03 07:03:57;;;;;;;20.85;6.15;;;31.30;60.60;;;;;;5082421;28;20070;-66
2021/07/03 07:06:24;;;;;;;30.50;6.90;;;31.10;88.90;;;;;;5083732;28;20106;-67
2021/07/03 07:08:51;;;;;;;20.23;5.43;;;31.20;61.00;;;;;;5083203;28;20031;-66
2021/07/03 07:11:17;;;;;;;29.23;6.22;;;;;;;;;;5081731;28;20042;-66
2021/07/03 07:13:44;;;;;;;27.25;5.30;;;30.80;73.30;;;;;;5082441;28;20111;-67
2021/07/03 07:16:26;;;;;;;19.95;4.57;;;31.20;61.90;;;;;;5082862;28;20175;-66
2021/07/03 07:18:53;;;;;;;23.70;5.05;;;31.10;62.40;;;;;;5086488;28;20553;-66
2021/07/03 07:21:19;;;;;;;19.92;4.32;;;31.10;62.90;;;;;;5086923;28;20088;-67
2021/07/03 07:23:46;;;;;;;16.20;4.85;;;30.80;91.30;;;;;;5085824;28;20028;-67
2021/07/03 07:26:12;;;;;;;17.98;5.07;;;31.00;64.50;;;;;;5086636;28;20069;-69
2021/07/03 07:28:40;;;;;;;17.50;4.75;;;31.00;63.50;;;;;;5085936;28;20077;-66
2021/07/03 07:31:07;;;;;;;20.52;4.88;;;31.10;63.60;;;;;;5083191;28;20097;-67
2021/07/03 07:33:33;;;;;;;15.40;4.55;;;31.10;63.40;;;;;;5086256;28;20079;-67
2021/07/03 07:36:00;;;;;;;17.48;4.50;;;30.80;85.50;;;;;;5079928;28;20020;-66
2021/07/03 07:38:27;;;;;;;17.42;4.40;;;31.10;63.60;;;;;;5081131;28;20065;-66
2021/07/03 07:40:54;;;;;;;19.95;5.60;;;31.10;63.80;;;;;;5081043;28;20153;-68
2021/07/03 07:43:21;;;;;;;14.27;5.97;;;31.20;77.60;;;;;;5089890;28;20103;-67
2021/07/03 07:45:48;;;;;;;21.67;6.03;;;30.60;94.90;;;;;;5083720;28;20163;-67
2021/07/03 07:48:14;;;;;;;18.70;6.10;;;31.00;69.70;;;;;;5079074;28;20096;-67
2021/07/03 07:50:41;;;;;;;20.92;5.22;;;30.90;63.30;;;;;;5083820;28;20092;-66
2021/07/03 07:53:08;;;;;;;16.23;4.93;;;30.90;62.90;;;;;;5079995;28;20081;-63
2021/07/03 07:55:34;;;;;;;20.55;5.05;;;30.90;63.10;;;;;;5084771;28;20073;-67
2021/07/03 07:58:01;;;;;;;14.07;4.78;;;30.90;63.10;;;;;;5080304;28;20104;-67
2021/07/03 08:00:27;;;;;;;18.40;5.18;;;30.90;63.20;;;;;;5081940;28;20073;-66
2021/07/03 08:02:55;;;;;;;19.80;5.07;;;30.80;62.90;;;;;;5084193;28;20056;-67
2021/07/03 08:05:22;;;;;;;10.82;3.88;;;30.90;75.20;;;;;;5081900;28;20050;-67
2021/07/03 08:07:48;;;;;;;16.17;4.45;;;30.90;63.50;;;;;;5083074;28;20065;-66
2021/07/03 08:10:17;;;;;;;14.20;3.90;;;30.80;63.00;;;;;;5081663;28;20187;-67
2021/07/03 08:12:44;;;;;;;11.20;3.95;;;31.00;65.90;;;;;;5080857;28;20099;-68
2021/07/03 08:15:12;;;;;;;12.30;3.78;;;30.90;62.00;;;;;;5082401;28;20080;-67
2021/07/03 08:17:44;;;;;;;10.18;3.88;;;30.90;62.70;;;;;;5085601;28;20134;-67
2021/07/03 08:20:17;;;;;;;11.85;3.72;;;30.90;62.80;;;;;;5081430;28;20076;-66
2021/07/03 08:22:47;;;;;;;15.77;3.78;;;30.90;63.30;;;;;;5086406;28;20092;-66
2021/07/03 08:25:14;;;;;;;14.05;3.78;;;30.90;63.10;;;;;;5082725;28;20080;-66
2021/07/03 08:27:41;;;;;;;13.15;4.78;;;30.80;62.90;;;;;;5082525;28;20073;-66
2021/07/03 08:30:09;;;;;;;15.82;3.72;;;30.80;63.30;;;;;;5080765;28;20088;-67
2021/07/03 08:32:36;;;;;;;12.73;3.47;;;30.80;62.90;;;;;;5081540;28;20574;-67
2021/07/03 08:35:03;;;;;;;17.33;3.30;;;30.80;63.00;;;;;;5085710;28;20130;-65
2021/07/03 08:37:29;;;;;;;15.77;3.17;;;30.80;62.50;;;;;;5080934;28;20073;-67
2021/07/03 08:39:56;;;;;;;12.00;3.30;;;30.80;61.90;;;;;;5085691;28;20159;-67
2021/07/03 08:42:23;;;;;;;13.27;3.33;;;30.80;61.70;;;;;;5089171;28;20101;-66
2021/07/03 08:44:50;;;;;;;11.48;3.40;;;30.80;61.90;;;;;;5083876;28;20127;-66
2021/07/03 08:47:18;;;;;;;9.90;4.22;;;30.90;61.60;;;;;;5087499;28;20046;-66
2021/07/03 08:50:00;;;;;;;13.65;3.17;;;30.80;62.10;;;;;;5082759;28;20091;-66
2021/07/03 08:52:27;;;;;;;7.22;3.22;;;30.80;62.20;;;;;;5085147;28;20159;-66
2021/07/03 08:55:06;;;;;;;14.73;4.05;;;30.80;62.40;;;;;;5088267;28;20081;-67
2021/07/03 08:57:42;;;;;;;12.00;3.60;;;30.80;62.60;;;;;;5085694;28;20072;-67
2021/07/03 09:00:10;;;;;;;14.30;3.75;;;30.70;63.00;;;;;;5087041;28;20057;-67
2021/07/03 09:02:40;;;;;;;16.17;3.65;;;30.70;64.30;;;;;;5088515;28;20091;-65
2021/07/03 09:05:31;;;;;;;11.95;3.67;;;31.20;61.50;;;;;;5087214;28;20080;-66
2021/07/03 09:08:06;;;;;;;14.10;4.15;;;31.30;62.00;;;;;;5083387;28;20076;-65
2021/07/03 09:10:35;;;;;;;15.75;4.00;;;31.80;90.50;;;;;;5083387;28;20094;-65
2021/07/03 09:13:03;;;;;;;13.77;4.38;;;31.40;67.50;;;;;;5084406;28;20069;-66
2021/07/03 09:15:32;;;;;;;13.43;4.47;;;31.50;61.10;;;;;;5088335;28;20534;-65
2021/07/03 09:18:10;;;;;;;9.07;4.75;;;31.50;61.10;;;;;;5086459;28;20089;-65
2021/07/03 09:20:56;;;;;;;11.55;4.10;;;31.50;61.40;;;;;;5085313;28;20492;-65
2021/07/03 09:23:25;;;;;;;14.70;4.63;;;31.50;61.20;;;;;;5085935;28;20444;-66
2021/07/03 09:26:00;;;;;;;13.25;3.80;;;31.40;61.40;;;;;;5084610;28;20427;-65
2021/07/03 09:28:32;;;;;;;13.30;4.47;;;31.50;60.80;;;;;;5085514;28;20087;-65
2021/07/03 09:31:00;;;;;;;20.13;5.38;;;31.50;60.20;;;;;;5085444;28;20097;-66
2021/07/03 09:33:36;;;;;;;17.33;4.60;;;31.60;60.10;;;;;;5085629;28;20522;-66
2021/07/03 09:36:07;;;;;;;16.10;4.95;;;31.80;59.60;;;;;;5083264;28;20080;-66
2021/07/03 09:38:35;;;;;;;13.70;4.35;;;31.60;59.80;;;;;;5084300;28;20065;-65
2021/07/03 09:41:19;;;;;;;14.05;4.35;;;31.70;59.80;;;;;;5085919;28;20275;-65
2021/07/03 09:43:51;;;;;;;12.50;4.00;;;31.50;60.40;;;;;;5082632;28;20072;-65
2021/07/03 09:46:29;;;;;;;11.18;3.58;;;31.40;61.30;;;;;;5083620;28;20144;-66
2021/07/03 09:48:59;;;;;;;12.52;3.70;;;31.30;61.70;;;;;;5082284;28;20123;-65
2021/07/03 09:51:30;;;;;;;11.95;3.45;;;31.30;62.30;;;;;;5084710;28;20541;-65
2021/07/03 09:53:58;;;;;;;7.47;2.83;;;31.30;74.60;;;;;;5084936;28;20065;-65
2021/07/03 09:56:26;;;;;;;11.57;3.38;;;31.20;62.70;;;;;;5087132;28;20263;-65
2021/07/03 09:58:53;;;;;;;14.68;3.55;;;31.10;99.90;;;;;;5080037;28;20545;-65
2021/07/03 10:01:20;;;;;;;10.65;3.05;;;31.00;63.10;;;;;;5085665;28;21363;-65
2021/07/03 10:03:47;;;;;;;13.65;3.45;;;30.70;98.50;;;;;;5086421;28;20028;-65
2021/07/03 10:06:20;;;;;;;11.45;3.05;;;30.80;96.10;;;;;;5082538;28;20473;-65
2021/07/03 10:08:53;;;;;;;12.05;3.33;;;30.70;65.00;;;;;;5082186;28;20087;-65
2021/07/03 10:11:23;;;;;;;11.45;3.90;;;30.60;65.30;;;;;;5066660;28;20097;-65
2021/07/03 10:13:57;;;;;;;14.32;3.25;;;30.50;66.20;;;;;;5078567;28;20108;-64
2021/07/03 10:16:23;;;;;;;9.50;2.83;;;29.00;85.00;;;;;;5083991;28;20147;-65
2021/07/03 10:18:50;;;;;;;9.88;2.70;;;30.40;66.30;;;;;;5083818;28;20079;-65
2021/07/03 10:21:21;;;;;;;6.63;2.53;;;30.40;96.00;;;;;;5084409;28;20513;-65
2021/07/03 10:23:50;;;;;;;10.25;3.55;;;30.30;97.90;;;;;;5085698;28;20415;-65
2021/07/03 10:26:16;;;;;;;8.88;3.22;;;29.90;79.20;;;;;;5083694;28;20085;-65
2021/07/03 10:28:49;;;;;;;10.07;3.20;;;29.90;89.00;;;;;;5084090;28;20069;-66
2021/07/03 10:31:15;;;;;;;11.70;3.60;;;30.00;66.30;;;;;;5081568;28;20101;-66
2021/07/03 10:33:49;;;;;;;13.00;3.40;;;30.00;66.50;;;;;;5084734;28;20207;-65
2021/07/03 10:36:30;;;;;;;9.43;4.00;;;30.10;66.00;;;;;;5085618;28;20083;-65
2021/07/03 10:38:59;;;;;;;12.27;3.50;;;30.00;66.30;;;;;;5083827;28;20068;-65
2021/07/03 10:41:32;;;;;;;9.60;3.60;;;29.90;66.50;;;;;;5083280;28;20121;-65
2021/07/03 10:44:09;;;;;;;15.75;3.88;;;29.90;67.00;;;;;;5084083;28;20072;-65
2021/07/03 10:46:40;;;;;;;11.32;3.83;;;29.90;67.40;;;;;;5084409;28;20112;-65
2021/07/03 10:49:14;;;;;;;17.38;4.60;;;29.80;67.70;;;;;;5083458;28;20083;-63
2021/07/03 10:51:42;;;;;;;9.55;3.70;;;29.80;67.20;;;;;;5079746;28;20180;-65
2021/07/03 10:54:12;;;;;;;12.00;4.40;;;29.80;67.60;;;;;;5086622;28;20126;-65
2021/07/03 11:00:01;;;;;;;11.15;4.47;;;29.70;68.10;;;;;;5049936;28;20434;-65
2021/07/03 11:02:32;;;;;;;10.32;4.60;;;29.80;68.80;;;;;;5082020;28;20125;-65
2021/07/03 11:05:08;;;;;;;12.38;4.88;;;29.80;68.20;;;;;;5082255;28;20073;-66
2021/07/03 11:07:34;;;;;;;;;;;29.90;68.20;;;;;;5083732;28;20087;-65
2021/07/03 11:10:18;;;;;;;10.63;4.10;;;30.00;68.30;;;;;;5081367;28;20034;-65
2021/07/03 11:12:52;;;;;;;13.70;4.18;;;29.90;68.60;;;;;;5081765;28;20500;-65
2021/07/03 11:15:23;;;;;;;15.55;4.50;;;29.90;68.80;;;;;;5087446;28;21548;-66
2021/07/03 11:17:51;;;;;;;17.58;5.25;;;29.80;69.00;;;;;;5081461;28;20130;-66
2021/07/03 11:20:27;;;;;;;17.02;5.10;;;29.90;69.40;;;;;;5081026;28;20079;-66
2021/07/03 11:22:55;;;;;;;12.43;4.90;;;29.80;69.30;;;;;;5085273;28;20437;-66
2021/07/03 11:25:36;;;;;;;15.85;4.20;;;29.70;69.70;;;;;;5084471;28;20156;-66
2021/07/03 11:28:10;;;;;;;14.00;4.57;;;29.60;70.70;;;;;;5082635;28;20474;-66
2021/07/03 11:30:44;;;;;;;12.35;3.60;;;29.60;71.90;;;;;;5081050;28;20606;-65
2021/07/03 11:33:11;;;;;;;13.88;3.65;;;29.60;71.90;;;;;;5083856;28;20073;-65
2021/07/03 11:35:46;;;;;;;8.57;3.10;;;29.50;72.60;;;;;;5083903;28;20138;-66
2021/07/03 11:38:14;;;;;;;8.77;3.55;;;29.50;73.20;;;;;;5081071;28;20115;-65
2021/07/03 11:40:41;;;;;;;11.88;3.33;;;29.60;74.40;;;;;;5080782;28;20113;-65
2021/07/03 11:43:08;;;;;;;9.88;3.05;;;29.60;74.80;;;;;;5079053;28;20432;-65
2021/07/03 11:45:38;;;;;;;14.52;3.22;;;29.70;74.20;;;;;;5084342;28;20064;-66
2021/07/03 11:48:16;;;;;;;12.02;3.22;;;29.70;74.10;;;;;;5082023;28;20068;-67
2021/07/03 11:50:49;;;;;;;6.78;2.83;;;29.60;74.60;;;;;;5078286;28;20195;-66
2021/07/03 11:53:21;;;;;;;12.48;3.78;;;29.40;75.80;;;;;;5083914;28;20075;-66
2021/07/03 11:55:52;;;;;;;4.60;2.60;;;29.50;76.00;;;;;;5082392;28;20072;-65
2021/07/03 11:58:26;;;;;;;6.15;2.88;;;29.40;77.10;;;;;;5082313;28;20079;-65
2021/07/03 12:00:54;;;;;;;9.43;2.65;;;29.30;77.30;;;;;;5082847;28;20117;-65
2021/07/03 12:03:32;;;;;;;9.98;3.10;;;29.20;78.10;;;;;;5082275;28;20109;-65
2021/07/03 12:06:03;;;;;;;11.57;2.88;;;29.20;78.90;;;;;;5081665;28;20125;-65
2021/07/03 12:08:38;;;;;;;10.63;3.63;;;29.10;80.40;;;;;;5078541;28;20414;-65
2021/07/03 12:11:12;;;;;;;12.85;3.88;;;29.00;81.40;;;;;;5078921;28;20563;-66
2021/07/03 12:13:48;;;;;;;14.40;4.05;;;29.00;82.00;;;;;;5088172;28;20069;-66
2021/07/03 12:16:16;;;;;;;;;;;29.00;83.10;;;;;;5087909;28;20072;-66
2021/07/03 12:18:42;;;;;;;13.20;4.35;;;28.90;84.30;;;;;;5089218;28;19976;-65
2021/07/03 12:21:18;;;;;;;8.95;3.40;;;28.90;85.10;;;;;;5089679;28;20076;-65
2021/07/03 12:23:48;;;;;;;7.30;3.28;;;28.80;85.90;;;;;;5085776;28;20091;-66
2021/07/03 12:26:18;;;;;;;12.35;3.75;;;28.70;87.40;;;;;;5087060;28;20081;-66
2021/07/03 12:29:06;;;;;;;10.65;3.50;;;28.80;87.70;;;;;;5090322;28;20068;-65
2021/07/03 12:31:41;;;;;;;15.60;3.67;;;28.70;88.10;;;;;;5088368;28;20596;-66
2021/07/03 12:34:25;;;;;;;13.52;4.28;;;28.60;89.90;;;;;;5085872;28;20525;-66
2021/07/03 12:37:24;;;;;;;12.90;3.88;;;28.60;90.40;;;;;;5086706;28;20126;-64
2021/07/03 12:39:52;;;;;;;15.80;4.07;;;28.40;91.20;;;;;;5078871;28;20096;-65
2021/07/03 12:42:20;;;;;;;10.45;3.92;;;28.40;91.90;;;;;;5085624;28;20108;-65
2021/07/03 12:44:48;;;;;;;12.27;4.20;;;28.30;92.30;;;;;;5088992;28;20518;-66
2021/07/03 12:47:18;;;;;;;13.07;4.32;;;28.20;92.60;;;;;;5089110;28;20076;-65